Strona główna
METAR-TAF:

METAR-TAF

Lotnisko :

Trypolis, Libia

Port lotniczy Mitiga

Szerokość geograficzna: 32-54N, Długość geograficzna: 13-17E, wysokość: 11 m

Aktualna obserwacja pogody

Raport powstał 3 godziny i 29 minut temu, godzina 21:50 UTC
Wiatr 6 kt od północny wschód
Temperatura 18°C
Wilgotność 77%
Ciśnienie 1019 hPa
Widzialność: 6000 m
Rozproszone chmury na wysokości 2500 ft
Rozproszone chmury na wysokości 7000 ft

METAR: HLLM 192150Z 05006KT 6000 SCT025 SCT070 18/14 Q1019

czas: 03:19 (01:19 UTC)

Prognoza

Raport powstał 8 godziny i 19 minut temu, godzina 17:00 UTC
Prognoza ważna od 19 godzina 18 UTC do 20 godzina 18 UTC
Wiatr 12 kt od wschodnio-północny wschód
Widzialność: 8000 m
Mało chmury na wysokości 1800 ft
Rozproszone chmury na wysokości 2500 ft
Prawdopodobieństwo 40% :
Przejściowo
od 09 godzina 21 UTC do 20 godzina 00 UTC
Widzialność: 0800 m
Przerywane chmury na wysokości 1000 ft

TAF: HLLM 191700Z 1918/2018 06012KT 8000 FEW018 SCT025 PROB40 TEMPO 0921/20008 0800 BKN010

Obserwacja i prognoza pogody dla ponad 4000 lotnisk (raport METAR i TAF).

Dostępne stacje oznaczono żółtymi i czerwonymi punktami na mapie.

Najedź kursorem aby zobaczyć nazwę stacji.

Kliknij aby zobaczyć obserwacje i prognozy pogody.

Aby zmienić mapę: kliknij na zielony przycisk z czarnym krzyżykiem, aby powiększyć; na zielony przycisk z myślnikiem, aby pomniejszyć; na zielone strzałki, aby przejść do map sąsiednich.


METAR-TAF: